createdAt,value
2023-02-13T00:00:25.446Z,100395.84
2023-02-13T00:02:52.094Z,100376.06
2023-02-13T00:05:18.796Z,100422.88
2023-02-13T00:07:45.426Z,100436.19
2023-02-13T00:10:12.552Z,100354.38
2023-02-13T00:12:39.269Z,100353.13
2023-02-13T00:15:06.746Z,100346.53
2023-02-13T00:17:33.461Z,100324.13
2023-02-13T00:20:00.237Z,100352.06
2023-02-13T00:22:27.019Z,100415.56
2023-02-13T00:24:53.821Z,100361.28
2023-02-13T00:27:20.556Z,100457.25
2023-02-13T00:29:47.268Z,100387.06
2023-02-13T00:32:15.121Z,100431.78
2023-02-13T00:34:42.438Z,100406.84
2023-02-13T00:37:09.031Z,100386.94
2023-02-13T00:39:35.826Z,100389.91
2023-02-13T00:42:02.538Z,100376.81
2023-02-13T00:44:29.239Z,100386.22
2023-02-13T00:46:55.811Z,100371.25
2023-02-13T00:49:23.859Z,100401.41
2023-02-13T00:51:50.540Z,100349.47
2023-02-13T00:54:17.656Z,100410.50
2023-02-13T00:56:44.492Z,100331.44
2023-02-13T00:59:13.321Z,100188.22
2023-02-13T01:01:39.989Z,100299.34
2023-02-13T01:04:06.876Z,100383.88
2023-02-13T01:06:33.435Z,100369.09
2023-02-13T01:09:00.188Z,100434.69
2023-02-13T01:11:26.896Z,100390.31
2023-02-13T01:13:55.196Z,100448.41
2023-02-13T01:16:21.898Z,100044.78
2023-02-13T01:18:48.678Z,100370.59
2023-02-13T01:21:21.516Z,100435.44
2023-02-13T01:23:48.425Z,100377.19
2023-02-13T01:26:33.394Z,100316.16
2023-02-13T01:29:00.145Z,100358.56
2023-02-13T01:31:27.444Z,100394.06
2023-02-13T01:33:57.191Z,100404.31
2023-02-13T01:36:24.359Z,100414.50
2023-02-13T01:38:56.379Z,100425.59
2023-02-13T01:41:25.280Z,100438.47
2023-02-13T01:43:55.188Z,100335.75
2023-02-13T01:46:31.694Z,100316.59
2023-02-13T01:49:07.693Z,100393.44
2023-02-13T01:51:36.351Z,100328.69
2023-02-13T01:54:13.154Z,100247.56
2023-02-13T01:56:51.793Z,100433.44
2023-02-13T01:59:28.927Z,100333.13
2023-02-13T02:01:57.051Z,100388.03
2023-02-13T02:04:32.090Z,100435.16
2023-02-13T02:07:04.602Z,100350.66
2023-02-13T02:09:38.790Z,100377.19
2023-02-13T02:12:26.264Z,100358.56
2023-02-13T02:14:55.708Z,100382.75
2023-02-13T02:17:26.080Z,100304.06
2023-02-13T02:20:23.579Z,100431.56
2023-02-13T02:22:58.287Z,100430.72
2023-02-13T02:25:40.123Z,100426.31
2023-02-13T02:28:29.806Z,100427.66
2023-02-13T02:31:53.716Z,100393.81
2023-02-13T02:34:47.931Z,100425.25
2023-02-13T02:37:56.698Z,100424.66
2023-02-13T02:40:46.293Z,100292.94
2023-02-13T02:43:21.955Z,100335.41
2023-02-13T02:46:17.164Z,100419.59
2023-02-13T02:49:02.339Z,100380.16
2023-02-13T02:52:00.959Z,100391.50
2023-02-13T02:54:37.762Z,100416.31
2023-02-13T02:57:14.653Z,100365.63
2023-02-13T02:59:44.293Z,100384.78
2023-02-13T03:02:13.248Z,100357.31
2023-02-13T03:04:47.511Z,100353.38
2023-02-13T03:07:17.874Z,100319.59
2023-02-13T03:09:48.952Z,100413.84
2023-02-13T03:12:21.496Z,100418.47
2023-02-13T03:14:48.446Z,100378.81
2023-02-13T03:17:16.977Z,100328.72
2023-02-13T03:19:55.286Z,100408.00
2023-02-13T03:22:21.969Z,100412.19
2023-02-13T03:25:06.996Z,100411.88
2023-02-13T03:27:42.895Z,100414.25
2023-02-13T03:30:25.216Z,100411.63
2023-02-13T03:33:13.359Z,100408.63
2023-02-13T03:35:48.964Z,100412.72
2023-02-13T03:38:23.360Z,100407.13
2023-02-13T03:41:05.330Z,100338.63
2023-02-13T03:43:42.567Z,100414.41
2023-02-13T03:46:10.623Z,100383.75
2023-02-13T03:48:40.371Z,100407.97
2023-02-13T03:51:10.366Z,100154.97
2023-02-13T03:53:40.336Z,100359.09
2023-02-13T03:56:09.618Z,100346.88
2023-02-13T03:58:42.373Z,100356.94
2023-02-13T04:01:12.147Z,100410.59
2023-02-13T04:03:52.566Z,100270.38
2023-02-13T04:06:23.947Z,100294.25
2023-02-13T04:08:50.638Z,100367.78
2023-02-13T04:11:26.072Z,100403.75
2023-02-13T04:16:57.863Z,100363.22
2023-02-13T04:22:12.302Z,100411.28
2023-02-13T04:24:38.979Z,100335.72
2023-02-13T04:27:05.663Z,100349.78
2023-02-13T04:29:32.347Z,100375.66
2023-02-13T04:31:59.073Z,100360.50
2023-02-13T04:34:25.735Z,100282.34
2023-02-13T04:36:52.517Z,100329.72
2023-02-13T04:39:19.303Z,100409.38
2023-02-13T04:41:45.943Z,100330.56
2023-02-13T04:44:12.664Z,100390.22
2023-02-13T04:46:39.369Z,100362.97
2023-02-13T04:49:05.976Z,100377.53
2023-02-13T04:51:32.833Z,100286.06
2023-02-13T04:53:59.454Z,100304.66
2023-02-13T04:56:26.125Z,100314.88
2023-02-13T04:58:52.904Z,100303.72
2023-02-13T05:01:19.634Z,100298.72
2023-02-13T05:03:46.298Z,100334.94
2023-02-13T05:06:13.266Z,100390.59
2023-02-13T05:08:40.420Z,100393.84
2023-02-13T05:11:07.519Z,100291.75
2023-02-13T05:13:34.920Z,100379.81
2023-02-13T05:16:01.786Z,100351.34
2023-02-13T05:18:28.715Z,100390.19
2023-02-13T05:20:56.646Z,100107.00
2023-02-13T05:23:23.357Z,100297.03
2023-02-13T05:25:50.587Z,100357.84
2023-02-13T05:28:18.094Z,100372.50
2023-02-13T05:30:47.013Z,100396.66
2023-02-13T05:33:13.748Z,100388.84
2023-02-13T05:35:40.519Z,100379.03
2023-02-13T05:38:07.260Z,100271.53
2023-02-13T05:40:34.013Z,100351.59
2023-02-13T05:43:00.677Z,100290.03
2023-02-13T05:45:27.468Z,100235.53
2023-02-13T05:47:54.438Z,100270.44
2023-02-13T05:50:21.254Z,100338.91
2023-02-13T05:52:47.821Z,100010.69
2023-02-13T05:55:14.827Z,100336.50
2023-02-13T05:57:41.563Z,100399.25
2023-02-13T06:00:08.670Z,100273.53
2023-02-13T06:02:35.414Z,100292.91
2023-02-13T06:05:02.215Z,100391.78
2023-02-13T06:07:28.910Z,100332.25
2023-02-13T06:09:56.293Z,100393.56
2023-02-13T06:12:23.455Z,100346.56
2023-02-13T06:14:50.209Z,100397.59
2023-02-13T06:17:16.948Z,100404.53
2023-02-13T06:19:44.009Z,100348.16
2023-02-13T06:22:10.664Z,100288.28
2023-02-13T06:24:37.500Z,100292.91
2023-02-13T06:27:04.247Z,100300.50
2023-02-13T06:29:31.267Z,100409.94
2023-02-13T06:31:58.097Z,100350.50
2023-02-13T06:34:25.040Z,100369.81
2023-02-13T06:36:53.036Z,100248.25
2023-02-13T06:39:19.932Z,100324.78
2023-02-13T06:41:46.689Z,100271.38
2023-02-13T06:44:13.349Z,100317.84
2023-02-13T06:46:40.206Z,100365.00
2023-02-13T06:49:06.923Z,100397.31
2023-02-13T06:51:33.516Z,100413.34
2023-02-13T06:54:41.075Z,100365.78
2023-02-13T06:57:12.338Z,100371.78
2023-02-13T06:59:39.074Z,100429.44
2023-02-13T07:02:06.737Z,100334.19
2023-02-13T07:04:33.794Z,100429.00
2023-02-13T07:07:01.706Z,100118.03
2023-02-13T07:09:28.713Z,100434.28
2023-02-13T07:11:55.359Z,100356.91
2023-02-13T07:14:22.254Z,100440.75
2023-02-13T07:16:49.123Z,100451.44
2023-02-13T07:19:16.028Z,100307.88
2023-02-13T07:21:43.153Z,100324.91
2023-02-13T07:24:10.126Z,100387.97
2023-02-13T07:26:36.856Z,100442.50
2023-02-13T07:29:11.176Z,100120.41
2023-02-13T07:31:51.952Z,100451.34
2023-02-13T07:34:25.918Z,100390.31
2023-02-13T07:36:52.889Z,100314.75
2023-02-13T07:39:21.925Z,100464.31
2023-02-13T07:41:51.328Z,100382.13
2023-02-13T07:44:18.390Z,100407.66
2023-02-13T07:46:45.372Z,100453.03
2023-02-13T07:49:12.038Z,100419.84
2023-02-13T07:51:38.687Z,100477.09
2023-02-13T07:54:05.370Z,100240.50
2023-02-13T07:56:32.144Z,100370.28
2023-02-13T07:58:59.049Z,100147.34
2023-02-13T08:01:25.801Z,100406.69
2023-02-13T08:03:52.601Z,100362.53
2023-02-13T08:06:20.724Z,100392.72
2023-02-13T08:08:47.345Z,100232.28
2023-02-13T08:11:43.409Z,100430.06
2023-02-13T08:14:10.119Z,100363.75
2023-02-13T08:16:36.770Z,100370.03
2023-02-13T08:19:03.578Z,100320.97
2023-02-13T08:21:30.753Z,100434.38
2023-02-13T08:23:57.553Z,100354.06
2023-02-13T08:26:24.518Z,100352.22
2023-02-13T08:28:51.325Z,100240.56
2023-02-13T08:31:18.056Z,100321.47
2023-02-13T08:33:44.930Z,100366.09
2023-02-13T08:36:11.599Z,100432.94
2023-02-13T08:41:05.225Z,100353.84
2023-02-13T08:43:31.899Z,100396.88
2023-02-13T08:46:00.321Z,100440.78
2023-02-13T08:48:27.619Z,100457.34
2023-02-13T08:50:54.215Z,100173.69
2023-02-13T08:53:25.118Z,100419.50
2023-02-13T08:55:57.883Z,100447.81
2023-02-13T08:58:25.146Z,100409.63
2023-02-13T09:00:52.055Z,100400.44
2023-02-13T09:03:21.008Z,100389.25
2023-02-13T09:05:47.731Z,100421.41
2023-02-13T09:08:16.246Z,100237.53
2023-02-13T09:10:43.949Z,100416.97
2023-02-13T09:13:11.094Z,100355.94
2023-02-13T09:15:41.142Z,100358.34
2023-02-13T09:18:08.077Z,100370.72
2023-02-13T09:20:36.005Z,100393.22
2023-02-13T09:23:02.894Z,100380.88
2023-02-13T09:25:29.611Z,100260.00
2023-02-13T09:27:56.436Z,100388.09
2023-02-13T09:30:23.102Z,100346.00
2023-02-13T09:32:54.776Z,100382.44
2023-02-13T09:35:22.755Z,100442.41
2023-02-13T09:37:49.382Z,100347.47
2023-02-13T09:40:28.029Z,100337.56
2023-02-13T09:43:05.602Z,100403.63
2023-02-13T09:45:33.025Z,100399.38
2023-02-13T09:47:59.909Z,100292.94
2023-02-13T09:50:31.060Z,100441.72
2023-02-13T09:52:59.556Z,100367.69
2023-02-13T09:55:49.944Z,100367.22
2023-02-13T09:58:34.987Z,100437.03
2023-02-13T10:01:06.516Z,100433.13
2023-02-13T10:03:45.619Z,100446.88
2023-02-13T10:06:28.426Z,100329.34
2023-02-13T10:09:20.783Z,100451.09
2023-02-13T10:12:23.273Z,100364.75
2023-02-13T10:15:14.831Z,100442.81
2023-02-13T10:17:47.902Z,100393.03
2023-02-13T10:20:39.656Z,100395.19
2023-02-13T10:23:16.486Z,100444.22
2023-02-13T10:25:53.599Z,100403.13
2023-02-13T10:28:44.305Z,100435.66
2023-02-13T10:31:23.038Z,100434.88
2023-02-13T10:34:02.263Z,100437.00
2023-02-13T10:36:34.124Z,100401.69
2023-02-13T10:39:02.990Z,100433.22
2023-02-13T10:41:35.548Z,100433.34
2023-02-13T10:44:08.414Z,100427.25
2023-02-13T10:46:55.921Z,100430.81
2023-02-13T10:49:39.862Z,100427.09
2023-02-13T10:52:25.752Z,100429.25
2023-02-13T10:55:18.228Z,100426.28
2023-02-13T10:58:07.015Z,100414.03
2023-02-13T11:00:55.179Z,100418.13
2023-02-13T11:03:23.267Z,100410.66
2023-02-13T11:05:51.757Z,100416.78
2023-02-13T11:08:34.657Z,100380.63
2023-02-13T11:11:01.436Z,100340.88
2023-02-13T11:13:30.365Z,100392.84
2023-02-13T11:16:09.863Z,100398.09
2023-02-13T11:18:39.420Z,100342.72
2023-02-13T11:21:31.791Z,100402.44
2023-02-13T11:24:26.622Z,100353.66
2023-02-13T11:27:01.833Z,100398.63
2023-02-13T11:29:32.161Z,100398.44
2023-02-13T11:32:14.159Z,100404.19
2023-02-13T11:34:43.106Z,100387.31
2023-02-13T11:37:12.818Z,100396.28
2023-02-13T11:39:43.459Z,100321.03
2023-02-13T11:42:34.636Z,100383.31
2023-02-13T11:45:20.714Z,100380.63
2023-02-13T11:47:47.734Z,100352.88
2023-02-13T11:50:33.578Z,100380.47
2023-02-13T11:53:08.380Z,100378.47
2023-02-13T11:55:37.737Z,100377.47
2023-02-13T11:58:21.706Z,100371.47
2023-02-13T12:00:48.649Z,100174.75
2023-02-13T12:03:21.531Z,100365.09
2023-02-13T12:06:07.385Z,100366.16
2023-02-13T12:08:38.680Z,100318.50
2023-02-13T12:11:25.220Z,100363.94
2023-02-13T12:13:52.141Z,100257.00
2023-02-13T12:16:54.468Z,100354.38
2023-02-13T12:19:40.607Z,100352.91
2023-02-13T12:22:41.879Z,100350.97
2023-02-13T12:25:20.197Z,100348.53
2023-02-13T12:27:58.478Z,100350.91
2023-02-13T12:30:56.387Z,100312.56
2023-02-13T12:33:34.271Z,100336.81
2023-02-13T12:36:26.967Z,100336.19
2023-02-13T12:39:22.978Z,100332.41
2023-02-13T12:42:12.156Z,100213.69
2023-02-13T12:45:16.338Z,100248.75
2023-02-13T12:47:54.966Z,100284.03
2023-02-13T12:50:46.778Z,100295.72
2023-02-13T12:53:50.862Z,100283.88
2023-02-13T12:56:48.525Z,100288.94
2023-02-13T12:59:30.422Z,100258.25
2023-02-13T13:02:18.668Z,100314.94
2023-02-13T13:05:04.249Z,100315.94
2023-02-13T13:07:43.222Z,100305.78
2023-02-13T13:10:12.984Z,100308.56
2023-02-13T13:13:06.643Z,100252.97
2023-02-13T13:16:18.213Z,100279.94
2023-02-13T13:19:26.992Z,100314.13
2023-02-13T13:21:58.783Z,100296.59
2023-02-13T13:24:42.550Z,100265.63
2023-02-13T13:27:32.602Z,100222.44
2023-02-13T13:30:04.572Z,100147.47
2023-02-13T13:32:33.070Z,100067.75
2023-02-13T13:35:08.335Z,100255.50
2023-02-13T13:37:50.447Z,100249.94
2023-02-13T13:40:41.719Z,100233.13
2023-02-13T13:43:27.124Z,100263.28
2023-02-13T13:46:03.114Z,100285.78
2023-02-13T13:49:07.080Z,100285.78
2023-02-13T13:51:37.136Z,100280.50
2023-02-13T13:54:22.336Z,100291.22
2023-02-13T13:56:53.928Z,100280.66
2023-02-13T13:59:46.455Z,100280.25
2023-02-13T14:02:19.544Z,100272.19
2023-02-13T14:05:20.068Z,100272.31
2023-02-13T14:07:51.026Z,100176.34
2023-02-13T14:10:21.251Z,100262.72
2023-02-13T14:12:50.216Z,100267.88
2023-02-13T14:15:38.295Z,100275.22
2023-02-13T14:18:15.225Z,100253.84
2023-02-13T14:20:42.000Z,100280.03
2023-02-13T14:23:27.055Z,100181.19
2023-02-13T14:26:19.553Z,100267.66
2023-02-13T14:28:50.608Z,100267.13
2023-02-13T14:31:31.379Z,100198.69
2023-02-13T14:34:09.636Z,100261.00
2023-02-13T14:36:40.057Z,100184.09
2023-02-13T14:39:08.217Z,100197.00
2023-02-13T14:41:46.129Z,100252.88
2023-02-13T14:44:33.768Z,100248.16
2023-02-13T14:47:07.231Z,100244.28
2023-02-13T14:49:40.750Z,100194.06
2023-02-13T14:52:17.954Z,100196.84
2023-02-13T14:55:00.883Z,100240.41
2023-02-13T14:57:27.618Z,100231.03
2023-02-13T14:59:58.707Z,100230.97
2023-02-13T15:02:28.736Z,100225.75
2023-02-13T15:05:10.522Z,100211.69
2023-02-13T15:07:43.202Z,100223.78
2023-02-13T15:10:31.537Z,100232.56
2023-02-13T15:13:00.590Z,100236.63
2023-02-13T15:15:32.035Z,100238.53
2023-02-13T15:18:02.924Z,100167.88
2023-02-13T15:20:35.379Z,100198.41
2023-02-13T15:23:03.046Z,100221.63
2023-02-13T15:25:29.784Z,100238.25
2023-02-13T15:27:56.716Z,100138.50
2023-02-13T15:30:34.920Z,100125.41
2023-02-13T15:33:18.671Z,100231.19
2023-02-13T15:35:46.673Z,100138.19
2023-02-13T15:38:28.873Z,100219.38
2023-02-13T15:41:02.644Z,100235.38
2023-02-13T15:43:35.712Z,100228.41
2023-02-13T15:46:18.545Z,100229.13
2023-02-13T15:48:46.274Z,100207.72
2023-02-13T15:51:29.034Z,100228.69
2023-02-13T15:54:07.909Z,100227.72
2023-02-13T15:56:36.667Z,100233.28
2023-02-13T15:59:03.767Z,100228.00
2023-02-13T16:01:32.014Z,100171.78
2023-02-13T16:04:06.584Z,100157.78
2023-02-13T16:06:34.130Z,100161.81
2023-02-13T16:11:51.861Z,100187.88
2023-02-13T16:14:26.894Z,100193.28
2023-02-13T16:16:58.642Z,100208.03
2023-02-13T16:19:41.899Z,100224.94
2023-02-13T16:22:18.427Z,100017.78
2023-02-13T16:24:50.400Z,100151.59
2023-02-13T16:27:19.150Z,100176.03
2023-02-13T16:30:05.624Z,100227.72
2023-02-13T16:32:34.723Z,100187.53
2023-02-13T16:35:28.731Z,100184.88
2023-02-13T16:37:58.949Z,100240.53
2023-02-13T16:43:45.102Z,100230.50
2023-02-13T16:46:14.952Z,100224.09
2023-02-13T16:48:43.732Z,100132.72
2023-02-13T16:51:11.005Z,100140.25
2023-02-13T16:53:39.081Z,100194.84
2023-02-13T16:56:09.193Z,100132.50
2023-02-13T16:58:36.023Z,100105.63
2023-02-13T17:01:04.767Z,100005.97
2023-02-13T17:03:34.401Z,100175.94
2023-02-13T17:06:02.282Z,100171.03
2023-02-13T17:08:31.368Z,100195.41
2023-02-13T17:11:06.988Z,100193.16
2023-02-13T17:13:34.837Z,100266.31
2023-02-13T17:16:01.624Z,100231.94
2023-02-13T17:18:28.392Z,100207.69
2023-02-13T17:20:55.307Z,100253.31
2023-02-13T17:23:24.816Z,100257.34
2023-02-13T17:25:53.032Z,100169.59
2023-02-13T17:28:29.861Z,100251.03
2023-02-13T17:30:59.630Z,100272.72
2023-02-13T17:33:31.834Z,100017.00
2023-02-13T17:35:59.537Z,100221.16
2023-02-13T17:38:26.358Z,100207.19
2023-02-13T17:40:53.197Z,100232.59
2023-02-13T17:43:20.386Z,100166.97
2023-02-13T17:45:48.097Z,100209.66
2023-02-13T17:48:15.383Z,100208.84
2023-02-13T17:50:42.328Z,100015.91
2023-02-13T17:53:20.740Z,100105.13
2023-02-13T17:55:47.514Z,100195.22
2023-02-13T17:58:21.223Z,100178.63
2023-02-13T18:00:50.065Z,100121.63
2023-02-13T18:03:16.832Z,100268.38
2023-02-13T18:05:47.914Z,100139.50
2023-02-13T18:12:05.619Z,99709.97
2023-02-13T18:15:09.163Z,99902.81
2023-02-13T18:24:47.524Z,100278.25
2023-02-13T18:31:34.263Z,99745.75
2023-02-13T18:34:25.534Z,100172.72
2023-02-13T18:37:05.280Z,100201.16
2023-02-13T18:47:12.085Z,100290.94
2023-02-13T19:04:20.660Z,100024.94
2023-02-13T19:06:50.652Z,100246.47
2023-02-13T19:09:20.433Z,100128.22
2023-02-13T19:11:56.520Z,100205.72
2023-02-13T19:17:39.053Z,99919.38
2023-02-13T19:20:10.500Z,100005.91
2023-02-13T19:22:44.315Z,99906.78
2023-02-13T19:25:11.324Z,99656.31
2023-02-13T19:27:40.954Z,100052.28
2023-02-13T19:30:08.349Z,99859.06
2023-02-13T19:32:35.766Z,100254.75
2023-02-13T19:35:02.536Z,99951.53
2023-02-13T19:37:35.743Z,100209.63
2023-02-13T19:40:14.696Z,100206.59
2023-02-13T19:42:41.684Z,99862.88
2023-02-13T19:45:08.873Z,100104.50
2023-02-13T19:47:35.609Z,100213.66
2023-02-13T19:50:02.459Z,99888.94
2023-02-13T19:52:29.237Z,99653.56
2023-02-13T19:54:56.014Z,100198.59
2023-02-13T19:57:26.469Z,100166.81
2023-02-13T19:59:53.441Z,99855.16
2023-02-13T20:02:23.358Z,99866.41
2023-02-13T20:04:50.232Z,100271.25
2023-02-13T20:07:18.472Z,100150.22
2023-02-13T20:09:45.370Z,99555.41
2023-02-13T20:12:15.161Z,100260.25
2023-02-13T20:14:42.178Z,99895.28
2023-02-13T20:17:08.998Z,100003.13
2023-02-13T20:19:36.673Z,100264.84
2023-02-13T20:22:03.419Z,99973.56
2023-02-13T20:24:30.245Z,100214.31
2023-02-13T20:26:59.592Z,99881.56
2023-02-13T20:29:26.381Z,100144.84
2023-02-13T20:32:01.843Z,100218.97
2023-02-13T20:34:31.632Z,100216.44
2023-02-13T20:37:15.012Z,100015.28
2023-02-13T20:39:45.808Z,99747.94
2023-02-13T20:42:12.877Z,99666.63
2023-02-13T20:44:43.052Z,99958.00
2023-02-13T20:47:12.729Z,100149.41
2023-02-13T20:49:39.524Z,100010.34
2023-02-13T20:54:49.036Z,99641.19
2023-02-13T20:57:16.114Z,99981.81
2023-02-13T20:59:50.757Z,99842.34
2023-02-13T21:06:12.845Z,99853.50
2023-02-13T21:08:53.904Z,99794.00
2023-02-13T21:11:32.059Z,100203.53
2023-02-13T21:17:27.742Z,99881.19
2023-02-13T21:23:37.517Z,100179.28
2023-02-13T21:26:57.202Z,100132.34
2023-02-13T21:40:04.713Z,100250.66
2023-02-13T21:43:33.253Z,100240.03
2023-02-13T21:46:39.420Z,100251.75
2023-02-13T21:49:12.422Z,100123.19
2023-02-13T21:54:27.783Z,100203.91
2023-02-13T22:01:00.861Z,100242.56
2023-02-13T22:03:30.197Z,100177.91
2023-02-13T22:05:57.314Z,100176.38
2023-02-13T22:11:41.003Z,100259.03
2023-02-13T22:14:27.713Z,99976.56
2023-02-13T22:17:11.616Z,100270.31
2023-02-13T22:19:41.381Z,100228.66
2023-02-13T22:22:15.902Z,100263.03
2023-02-13T22:25:13.019Z,100167.75
2023-02-13T22:28:08.737Z,99811.97
2023-02-13T22:31:02.752Z,100205.09
2023-02-13T22:34:14.879Z,100278.00
2023-02-13T22:37:15.069Z,99923.38
2023-02-13T22:40:33.443Z,100250.56
2023-02-13T22:48:07.181Z,100161.44
2023-02-13T22:51:08.504Z,100016.00
2023-02-13T22:57:12.137Z,100258.94
2023-02-13T23:02:53.283Z,100141.63
2023-02-13T23:05:20.822Z,100274.13
2023-02-13T23:07:47.624Z,100259.97
2023-02-13T23:10:14.554Z,100183.50
2023-02-13T23:12:53.006Z,100207.06
2023-02-13T23:15:20.166Z,100157.50
2023-02-13T23:17:47.013Z,100264.44
2023-02-13T23:20:13.945Z,99907.47
2023-02-13T23:22:40.570Z,100168.06
2023-02-13T23:25:08.022Z,100170.75
2023-02-13T23:27:35.913Z,100271.50
2023-02-13T23:30:04.439Z,100275.53
2023-02-13T23:32:31.869Z,100077.56
2023-02-13T23:34:58.825Z,100167.41
2023-02-13T23:37:25.492Z,100191.97
2023-02-13T23:39:52.456Z,100268.34
2023-02-13T23:42:19.090Z,100179.66
2023-02-13T23:44:45.917Z,100231.53
2023-02-13T23:47:12.593Z,100133.09
2023-02-13T23:49:39.393Z,100215.69
2023-02-13T23:52:06.108Z,100215.28
2023-02-13T23:54:32.844Z,100199.19
2023-02-13T23:57:00.284Z,100158.94
2023-02-13T23:59:27.320Z,100173.47
